createdAt,value
2018-02-09T00:00:11.281Z,65.33
2018-02-09T00:02:39.160Z,65.26
2018-02-09T00:05:06.692Z,65.44
2018-02-09T00:07:34.249Z,65.23
2018-02-09T00:10:01.823Z,65.35
2018-02-09T00:12:29.343Z,65.58
2018-02-09T00:14:56.880Z,65.53
2018-02-09T00:17:24.538Z,65.23
2018-02-09T00:19:52.391Z,65.60
2018-02-09T00:22:19.959Z,65.71
2018-02-09T00:24:47.508Z,65.65
2018-02-09T00:27:15.094Z,65.84
2018-02-09T00:29:43.043Z,65.70
2018-02-09T00:32:10.569Z,65.74
2018-02-09T00:34:38.372Z,65.27
2018-02-09T00:37:05.921Z,65.07
2018-02-09T00:39:33.482Z,65.43
2018-02-09T00:42:01.062Z,65.56
2018-02-09T00:44:28.920Z,65.57
2018-02-09T00:46:56.500Z,65.82
2018-02-09T00:49:24.032Z,65.83
2018-02-09T00:51:51.573Z,65.98
2018-02-09T00:54:19.150Z,65.91
2018-02-09T00:56:46.766Z,65.77
2018-02-09T00:59:14.314Z,65.86
2018-02-09T01:01:42.260Z,65.99
2018-02-09T01:04:09.778Z,65.79
2018-02-09T01:06:37.338Z,65.75
2018-02-09T01:09:04.902Z,65.97
2018-02-09T01:11:32.455Z,65.50
2018-02-09T01:14:00.266Z,65.39
2018-02-09T01:16:27.844Z,65.44
2018-02-09T01:18:55.410Z,65.23
2018-02-09T01:21:22.940Z,65.33
2018-02-09T01:23:50.517Z,65.60
2018-02-09T01:26:18.079Z,65.83
2018-02-09T01:28:45.635Z,65.76
2018-02-09T01:31:13.192Z,65.81
2018-02-09T01:33:40.739Z,65.89
2018-02-09T01:36:08.350Z,66.34
2018-02-09T01:38:35.901Z,66.44
2018-02-09T01:41:03.498Z,66.72
2018-02-09T01:43:31.034Z,66.79
2018-02-09T01:45:58.602Z,66.75
2018-02-09T01:48:26.176Z,67.41
2018-02-09T01:50:53.774Z,67.64
2018-02-09T01:53:21.302Z,67.57
2018-02-09T01:55:48.862Z,67.83
2018-02-09T01:58:16.438Z,68.02
2018-02-09T02:00:43.978Z,68.23
2018-02-09T02:03:11.808Z,67.96
2018-02-09T02:05:39.369Z,68.10
2018-02-09T02:08:06.894Z,68.62
2018-02-09T02:10:34.453Z,68.71
2018-02-09T02:13:02.041Z,68.50
2018-02-09T02:15:29.598Z,68.40
2018-02-09T02:17:57.165Z,68.65
2018-02-09T02:20:24.705Z,68.84
2018-02-09T02:22:52.239Z,68.86
2018-02-09T02:25:19.845Z,68.78
2018-02-09T02:27:47.394Z,68.88
2018-02-09T02:30:15.267Z,69.06
2018-02-09T02:32:42.849Z,69.32
2018-02-09T02:35:10.417Z,69.50
2018-02-09T02:37:37.975Z,69.50
2018-02-09T02:40:05.541Z,69.20
2018-02-09T02:42:35.383Z,69.56
2018-02-09T02:45:02.922Z,69.76
2018-02-09T02:47:30.462Z,70.02
2018-02-09T02:49:58.036Z,69.77
2018-02-09T02:52:25.558Z,70.09
2018-02-09T02:54:53.092Z,70.30
2018-02-09T02:57:20.638Z,70.31
2018-02-09T02:59:48.442Z,70.26
2018-02-09T03:02:16.091Z,70.21
2018-02-09T03:04:43.873Z,70.42
2018-02-09T03:07:11.429Z,70.55
2018-02-09T03:09:38.977Z,70.80
2018-02-09T03:12:06.526Z,71.00
2018-02-09T03:14:34.421Z,70.46
2018-02-09T03:17:01.970Z,70.51
2018-02-09T03:19:29.510Z,70.71
2018-02-09T03:21:57.313Z,70.69
2018-02-09T03:24:24.848Z,70.91
2018-02-09T03:26:52.458Z,70.68
2018-02-09T03:29:20.306Z,70.96
2018-02-09T03:31:48.167Z,71.14
2018-02-09T03:34:15.962Z,71.32
2018-02-09T03:36:43.523Z,71.32
2018-02-09T03:39:11.116Z,71.50
2018-02-09T03:41:38.684Z,71.14
2018-02-09T03:44:06.237Z,71.30
2018-02-09T03:46:33.804Z,71.47
2018-02-09T03:49:02.846Z,71.57
2018-02-09T03:51:30.445Z,71.86
2018-02-09T03:53:58.008Z,71.49
2018-02-09T03:56:25.534Z,71.76
2018-02-09T03:58:53.395Z,71.58
2018-02-09T04:01:20.988Z,71.86
2018-02-09T04:03:48.565Z,71.78
2018-02-09T04:06:16.124Z,72.01
2018-02-09T04:08:43.701Z,72.20
2018-02-09T04:11:11.231Z,72.41
2018-02-09T04:13:38.862Z,72.62
2018-02-09T04:16:06.440Z,72.58
2018-02-09T04:18:34.202Z,72.81
2018-02-09T04:21:01.781Z,72.95
2018-02-09T04:23:29.330Z,72.93
2018-02-09T04:25:56.890Z,72.76
2018-02-09T04:28:24.443Z,72.56
2018-02-09T04:30:52.306Z,72.64
2018-02-09T04:33:19.869Z,72.74
2018-02-09T04:35:47.431Z,72.70
2018-02-09T04:38:14.969Z,72.79
2018-02-09T04:40:42.860Z,73.14
2018-02-09T04:43:10.386Z,73.08
2018-02-09T04:45:37.915Z,73.14
2018-02-09T04:48:05.502Z,73.05
2018-02-09T04:50:33.054Z,73.15
2018-02-09T04:53:00.651Z,73.35
2018-02-09T04:55:28.221Z,73.40
2018-02-09T04:57:55.795Z,73.39
2018-02-09T05:00:23.331Z,73.37
2018-02-09T05:02:50.930Z,73.55
2018-02-09T05:05:18.490Z,73.61
2018-02-09T05:07:46.076Z,73.61
2018-02-09T05:10:13.671Z,73.53
2018-02-09T05:12:41.227Z,73.81
2018-02-09T05:15:08.784Z,74.03
2018-02-09T05:17:36.346Z,74.12
2018-02-09T05:20:03.905Z,74.05
2018-02-09T05:22:31.514Z,74.19
2018-02-09T05:24:59.257Z,74.23
2018-02-09T05:27:26.808Z,74.45
2018-02-09T05:29:54.350Z,74.42
2018-02-09T05:32:21.913Z,74.27
2018-02-09T05:34:49.509Z,74.02
2018-02-09T05:37:17.095Z,74.13
2018-02-09T05:39:44.649Z,73.98
2018-02-09T05:42:12.579Z,74.08
2018-02-09T05:44:40.166Z,74.07
2018-02-09T05:47:07.751Z,74.03
2018-02-09T05:49:35.331Z,74.10
2018-02-09T05:52:02.926Z,74.39
2018-02-09T05:54:30.505Z,74.57
2018-02-09T05:56:58.091Z,74.64
2018-02-09T05:59:25.650Z,74.71
2018-02-09T06:01:53.171Z,74.65
2018-02-09T06:04:20.733Z,74.41
2018-02-09T06:06:48.278Z,74.59
2018-02-09T06:09:15.876Z,74.48
2018-02-09T06:11:43.478Z,74.51
2018-02-09T06:14:11.029Z,74.63
2018-02-09T06:16:38.613Z,74.77
2018-02-09T06:19:06.180Z,75.05
2018-02-09T06:21:34.066Z,74.87
2018-02-09T06:24:01.626Z,74.84
2018-02-09T06:26:29.487Z,75.06
2018-02-09T06:28:57.052Z,75.09
2018-02-09T06:31:24.597Z,74.70
2018-02-09T06:33:52.170Z,74.39
2018-02-09T06:36:19.709Z,74.60
2018-02-09T06:38:47.270Z,74.33
2018-02-09T06:41:14.817Z,74.35
2018-02-09T06:43:42.836Z,74.24
2018-02-09T06:46:10.710Z,74.31
2018-02-09T06:48:38.310Z,73.77
2018-02-09T06:51:05.910Z,73.95
2018-02-09T06:53:33.437Z,73.93
2018-02-09T06:56:01.002Z,73.25
2018-02-09T06:58:28.542Z,73.15
2018-02-09T07:00:56.107Z,73.64
2018-02-09T07:03:23.642Z,73.90
2018-02-09T07:05:51.251Z,73.77
2018-02-09T07:08:18.833Z,72.89
2018-02-09T07:10:46.772Z,73.21
2018-02-09T07:13:14.473Z,73.07
2018-02-09T07:15:42.225Z,73.08
2018-02-09T07:18:09.769Z,72.67
2018-02-09T07:20:37.781Z,72.49
2018-02-09T07:23:05.479Z,72.52
2018-02-09T07:25:33.112Z,72.43
2018-02-09T07:28:00.689Z,72.38
2018-02-09T07:30:28.255Z,72.06
2018-02-09T07:32:55.811Z,71.91
2018-02-09T07:35:23.446Z,71.74
2018-02-09T07:37:51.037Z,71.81
2018-02-09T07:40:18.983Z,71.65
2018-02-09T07:42:46.655Z,71.31
2018-02-09T07:45:14.232Z,71.35
2018-02-09T07:47:41.865Z,70.66
2018-02-09T07:50:09.453Z,70.46
2018-02-09T07:52:36.996Z,70.18
2018-02-09T07:55:04.577Z,69.93
2018-02-09T07:57:32.711Z,69.43
2018-02-09T08:00:00.547Z,69.27
2018-02-09T08:02:28.146Z,68.91
2018-02-09T08:04:55.699Z,68.43
2018-02-09T08:07:23.301Z,68.54
2018-02-09T08:09:50.910Z,68.48
2018-02-09T08:12:18.542Z,67.98
2018-02-09T08:14:46.134Z,68.36
2018-02-09T08:17:13.694Z,68.36
2018-02-09T08:19:41.279Z,68.64
2018-02-09T08:22:08.904Z,68.33
2018-02-09T08:24:36.704Z,68.11
2018-02-09T08:27:04.343Z,68.73
2018-02-09T08:29:31.967Z,68.51
2018-02-09T08:31:59.491Z,68.64
2018-02-09T08:34:27.099Z,68.24
2018-02-09T08:36:54.699Z,67.80
2018-02-09T08:39:22.262Z,67.28
2018-02-09T08:41:49.874Z,66.86
2018-02-09T08:44:17.410Z,65.85
2018-02-09T08:46:45.230Z,65.01
2018-02-09T08:49:13.292Z,64.91
2018-02-09T08:51:40.970Z,65.58
2018-02-09T08:54:08.593Z,65.89
2018-02-09T08:56:36.426Z,65.42
2018-02-09T08:59:03.976Z,65.14
2018-02-09T09:01:31.643Z,65.12
2018-02-09T09:03:59.231Z,65.51
2018-02-09T09:06:26.868Z,65.03
2018-02-09T09:08:54.621Z,65.91
2018-02-09T09:11:22.253Z,65.60
2018-02-09T09:13:49.815Z,66.03
2018-02-09T09:16:17.373Z,66.11
2018-02-09T09:18:45.104Z,65.85
2018-02-09T09:21:12.752Z,65.47
2018-02-09T09:23:40.566Z,65.57
2018-02-09T09:26:08.191Z,65.99
2018-02-09T09:28:35.798Z,66.20
2018-02-09T09:31:03.366Z,65.97
2018-02-09T09:33:30.928Z,66.18
2018-02-09T09:35:58.534Z,66.05
2018-02-09T09:38:26.121Z,66.41
2018-02-09T09:40:53.752Z,66.42
2018-02-09T09:43:21.359Z,66.32
2018-02-09T09:45:48.976Z,66.50
2018-02-09T09:48:16.506Z,66.62
2018-02-09T09:50:44.055Z,66.22
2018-02-09T09:53:11.815Z,66.17
2018-02-09T09:55:39.342Z,66.35
2018-02-09T09:58:06.921Z,66.61
2018-02-09T10:00:34.487Z,67.70
2018-02-09T10:03:02.329Z,67.22
2018-02-09T10:05:30.173Z,66.48
2018-02-09T10:07:57.740Z,66.35
2018-02-09T10:10:25.316Z,65.93
2018-02-09T10:12:52.904Z,65.60
2018-02-09T10:15:20.447Z,65.43
2018-02-09T10:17:47.989Z,65.13
2018-02-09T10:20:15.627Z,65.43
2018-02-09T10:22:43.210Z,65.14
2018-02-09T10:25:10.807Z,64.43
2018-02-09T10:27:38.407Z,64.52
2018-02-09T10:30:05.984Z,64.21
2018-02-09T10:32:33.654Z,63.93
2018-02-09T10:35:02.266Z,63.65
2018-02-09T10:37:29.864Z,64.72
2018-02-09T10:39:57.450Z,64.08
2018-02-09T10:42:25.046Z,62.76
2018-02-09T10:44:52.691Z,62.41
2018-02-09T10:47:20.236Z,62.14
2018-02-09T10:49:48.167Z,61.06
2018-02-09T10:52:17.863Z,60.85
2018-02-09T10:54:45.918Z,60.22
2018-02-09T10:57:13.572Z,61.04
2018-02-09T10:59:41.125Z,61.22
2018-02-09T11:02:08.713Z,61.11
2018-02-09T11:04:36.251Z,61.57
2018-02-09T11:07:03.800Z,59.94
2018-02-09T11:09:31.347Z,60.16
2018-02-09T11:15:02.922Z,59.01
2018-02-09T11:17:30.516Z,58.97
2018-02-09T11:19:58.078Z,58.70
2018-02-09T11:22:25.642Z,57.89
2018-02-09T11:24:53.198Z,57.38
2018-02-09T11:27:21.041Z,57.19
2018-02-09T11:29:48.688Z,56.29
2018-02-09T11:32:16.268Z,55.83
2018-02-09T11:34:43.806Z,55.89
2018-02-09T11:37:11.383Z,55.27
2018-02-09T11:39:38.971Z,54.46
2018-02-09T11:42:06.546Z,55.45
2018-02-09T11:44:34.086Z,55.87
2018-02-09T11:47:01.718Z,55.32
2018-02-09T11:49:29.290Z,55.24
2018-02-09T11:51:56.881Z,56.24
2018-02-09T11:54:24.441Z,55.98
2018-02-09T11:56:51.981Z,56.74
2018-02-09T11:59:19.554Z,57.24
2018-02-09T12:01:47.100Z,57.91
2018-02-09T12:04:14.662Z,56.94
2018-02-09T12:06:42.225Z,57.84
2018-02-09T12:09:09.789Z,58.56
2018-02-09T12:11:37.346Z,59.36
2018-02-09T12:14:04.922Z,59.27
2018-02-09T12:16:32.492Z,59.50
2018-02-09T12:19:00.065Z,59.18
2018-02-09T12:21:27.892Z,59.01
2018-02-09T12:23:55.488Z,60.51
2018-02-09T12:26:23.023Z,59.25
2018-02-09T12:28:50.596Z,59.82
2018-02-09T12:31:18.461Z,59.86
2018-02-09T12:33:46.146Z,60.62
2018-02-09T12:36:13.685Z,59.31
2018-02-09T12:38:41.258Z,58.65
2018-02-09T12:41:09.101Z,58.25
2018-02-09T12:43:36.650Z,58.52
2018-02-09T12:46:04.428Z,58.46
2018-02-09T12:48:32.001Z,58.31
2018-02-09T12:50:59.532Z,58.17
2018-02-09T12:53:27.082Z,57.67
2018-02-09T12:55:54.675Z,57.47
2018-02-09T12:58:22.218Z,58.05
2018-02-09T13:00:50.282Z,57.88
2018-02-09T13:03:17.913Z,57.95
2018-02-09T13:05:45.670Z,58.12
2018-02-09T13:08:13.614Z,57.83
2018-02-09T13:10:41.263Z,57.95
2018-02-09T13:13:11.667Z,58.16
2018-02-09T13:15:39.200Z,58.30
2018-02-09T13:18:07.018Z,58.52
2018-02-09T13:20:34.544Z,58.13
2018-02-09T13:23:14.226Z,58.78
2018-02-09T13:25:41.743Z,58.56
2018-02-09T13:28:09.302Z,58.48
2018-02-09T13:30:37.111Z,58.55
2018-02-09T13:33:16.471Z,59.16
2018-02-09T13:35:44.047Z,58.45
2018-02-09T13:38:11.586Z,58.51
2018-02-09T13:40:39.154Z,58.49
2018-02-09T13:43:06.764Z,58.66
2018-02-09T13:45:34.319Z,58.38
2018-02-09T13:48:01.850Z,58.57
2018-02-09T13:50:29.404Z,58.14
2018-02-09T13:52:56.928Z,58.06
2018-02-09T13:55:24.469Z,58.06
2018-02-09T13:57:51.998Z,57.90
2018-02-09T14:00:19.930Z,58.05
2018-02-09T14:02:47.475Z,58.47
2018-02-09T14:05:15.023Z,58.13
2018-02-09T14:07:42.904Z,58.22
2018-02-09T14:10:10.440Z,58.64
2018-02-09T14:12:37.983Z,58.34
2018-02-09T14:15:05.516Z,58.00
2018-02-09T14:17:33.037Z,58.15
2018-02-09T14:20:00.608Z,58.36
2018-02-09T14:22:28.142Z,59.05
2018-02-09T14:24:55.678Z,58.77
2018-02-09T14:27:23.970Z,58.24
2018-02-09T14:29:51.540Z,58.35
2018-02-09T14:32:19.095Z,58.40
2018-02-09T14:34:46.642Z,58.14
2018-02-09T14:37:14.213Z,58.38
2018-02-09T14:39:41.790Z,58.31
2018-02-09T14:42:09.318Z,58.40
2018-02-09T14:44:36.867Z,58.65
2018-02-09T14:47:04.453Z,58.71
2018-02-09T14:49:32.371Z,58.95
2018-02-09T14:51:59.900Z,59.17
2018-02-09T14:54:27.787Z,59.21
2018-02-09T14:56:55.334Z,59.54
2018-02-09T14:59:23.117Z,59.12
2018-02-09T15:01:50.706Z,59.05
2018-02-09T15:04:18.544Z,59.29
2018-02-09T15:06:46.135Z,59.58
2018-02-09T15:09:13.755Z,59.68
2018-02-09T15:11:41.295Z,59.57
2018-02-09T15:14:08.824Z,59.65
2018-02-09T15:16:36.654Z,59.75
2018-02-09T15:19:04.198Z,60.15
2018-02-09T15:21:31.757Z,60.27
2018-02-09T15:23:59.298Z,60.68
2018-02-09T15:26:26.862Z,60.79
2018-02-09T15:28:54.471Z,60.99
2018-02-09T15:31:22.333Z,61.01
2018-02-09T15:33:49.923Z,61.06
2018-02-09T15:36:17.513Z,61.15
2018-02-09T15:38:45.087Z,61.35
2018-02-09T15:41:12.712Z,61.60
2018-02-09T15:43:40.249Z,61.49
2018-02-09T15:46:07.793Z,61.79
2018-02-09T15:48:35.403Z,61.90
2018-02-09T15:51:02.957Z,61.88
2018-02-09T15:53:30.508Z,62.25
2018-02-09T15:55:58.059Z,62.46
2018-02-09T15:58:25.606Z,62.63
2018-02-09T16:00:53.469Z,62.60
2018-02-09T16:03:21.058Z,63.01
2018-02-09T16:05:48.892Z,63.15
2018-02-09T16:08:16.446Z,63.23
2018-02-09T16:10:43.975Z,63.57
2018-02-09T16:13:11.520Z,63.68
2018-02-09T16:15:39.076Z,64.00
2018-02-09T16:18:06.674Z,64.22
2018-02-09T16:20:34.242Z,64.83
2018-02-09T16:23:01.766Z,64.31
2018-02-09T16:25:29.300Z,64.60
2018-02-09T16:27:56.859Z,64.71
2018-02-09T16:30:24.715Z,65.18
2018-02-09T16:32:52.303Z,65.44
2018-02-09T16:35:20.134Z,65.49
2018-02-09T16:37:47.905Z,65.46
2018-02-09T16:40:15.492Z,65.52
2018-02-09T16:42:43.330Z,65.63
2018-02-09T16:45:10.881Z,66.16
2018-02-09T16:47:38.477Z,66.24
2018-02-09T16:50:06.025Z,66.45
2018-02-09T16:52:33.587Z,66.71
2018-02-09T16:55:01.161Z,66.98
2018-02-09T16:57:28.700Z,66.91
2018-02-09T16:59:56.538Z,67.23
2018-02-09T17:02:24.366Z,67.21
2018-02-09T17:04:52.069Z,67.20
2018-02-09T17:07:19.964Z,67.44
2018-02-09T17:09:48.373Z,67.50
2018-02-09T17:12:16.353Z,67.76
2018-02-09T17:14:43.910Z,67.64
2018-02-09T17:17:12.201Z,67.63
2018-02-09T17:19:40.598Z,67.87
2018-02-09T17:22:08.195Z,68.14
2018-02-09T17:24:35.770Z,68.14
2018-02-09T17:27:03.358Z,68.20
2018-02-09T17:29:30.878Z,68.15
2018-02-09T17:31:58.440Z,68.59
2018-02-09T17:34:25.983Z,68.56
2018-02-09T17:36:53.571Z,68.83
2018-02-09T17:39:21.147Z,68.42
2018-02-09T17:41:48.809Z,68.56
2018-02-09T17:44:16.344Z,68.62
2018-02-09T17:46:43.884Z,68.66
2018-02-09T17:49:11.557Z,68.87
2018-02-09T17:51:39.126Z,68.64
2018-02-09T17:54:06.666Z,68.70
2018-02-09T17:56:34.224Z,68.75
2018-02-09T17:59:01.786Z,68.57
2018-02-09T18:01:29.323Z,68.75
2018-02-09T18:03:56.884Z,68.95
2018-02-09T18:06:24.415Z,69.11
2018-02-09T18:08:52.054Z,69.36
2018-02-09T18:11:19.588Z,69.47
2018-02-09T18:13:47.125Z,69.40
2018-02-09T18:16:14.727Z,69.49
2018-02-09T18:18:42.249Z,69.63
2018-02-09T18:21:10.064Z,69.88
2018-02-09T18:23:37.636Z,70.24
2018-02-09T18:26:05.176Z,70.15
2018-02-09T18:28:32.759Z,69.93
2018-02-09T18:31:00.305Z,69.82
2018-02-09T18:33:27.850Z,69.72
2018-02-09T18:35:55.442Z,69.67
2018-02-09T18:38:23.013Z,69.24
2018-02-09T18:40:50.558Z,69.10
2018-02-09T18:43:18.173Z,68.92
2018-02-09T18:45:45.702Z,69.07
2018-02-09T18:48:13.363Z,69.08
2018-02-09T18:50:40.920Z,69.20
2018-02-09T18:53:08.868Z,68.96
2018-02-09T18:55:36.462Z,69.07
2018-02-09T18:58:04.006Z,68.93
2018-02-09T19:00:31.525Z,68.92
2018-02-09T19:02:59.413Z,68.80
2018-02-09T19:05:26.987Z,68.76
2018-02-09T19:07:54.554Z,68.80
2018-02-09T19:10:22.399Z,69.00
2018-02-09T19:12:50.267Z,69.31
2018-02-09T19:15:17.806Z,69.33
2018-02-09T19:17:45.433Z,68.67
2018-02-09T19:20:13.003Z,69.07
2018-02-09T19:22:40.823Z,69.18
2018-02-09T19:25:08.362Z,69.27
2018-02-09T19:27:36.244Z,68.81
2018-02-09T19:30:03.821Z,68.89
2018-02-09T19:32:31.380Z,68.84
2018-02-09T19:34:58.930Z,69.14
2018-02-09T19:37:26.525Z,69.23
2018-02-09T19:39:54.363Z,69.36
2018-02-09T19:42:21.935Z,69.28
2018-02-09T19:44:49.552Z,69.37
2018-02-09T19:47:17.140Z,69.29
2018-02-09T19:49:44.683Z,69.29
2018-02-09T19:52:12.235Z,69.17
2018-02-09T19:54:39.901Z,69.16
2018-02-09T19:57:07.439Z,68.93
2018-02-09T19:59:35.050Z,69.06
2018-02-09T20:02:02.627Z,69.17
2018-02-09T20:04:30.169Z,69.04
2018-02-09T20:06:57.772Z,69.02
2018-02-09T20:09:25.391Z,69.00
2018-02-09T20:11:52.931Z,69.15
2018-02-09T20:14:20.582Z,68.67
2018-02-09T20:16:48.125Z,68.95
2018-02-09T20:19:15.707Z,69.04
2018-02-09T20:21:43.317Z,69.04
2018-02-09T20:24:10.995Z,68.55
2018-02-09T20:26:38.834Z,68.57
2018-02-09T20:29:06.381Z,68.76
2018-02-09T20:31:33.982Z,68.46
2018-02-09T20:34:01.585Z,68.21
2018-02-09T20:36:29.232Z,68.09
2018-02-09T20:38:56.864Z,68.26
2018-02-09T20:41:24.429Z,67.85
2018-02-09T20:43:51.983Z,67.84
2018-02-09T20:46:19.610Z,67.81
2018-02-09T20:48:47.141Z,67.68
2018-02-09T20:51:14.967Z,67.45
2018-02-09T20:53:42.832Z,67.82
2018-02-09T20:56:10.390Z,67.75
2018-02-09T20:58:38.260Z,67.51
2018-02-09T21:01:05.917Z,67.37
2018-02-09T21:03:33.477Z,67.23
2018-02-09T21:06:01.066Z,67.52
2018-02-09T21:08:28.633Z,67.73
2018-02-09T21:10:56.463Z,67.68
2018-02-09T21:13:24.327Z,67.47
2018-02-09T21:15:51.957Z,67.87
2018-02-09T21:18:19.767Z,67.84
2018-02-09T21:20:47.306Z,67.91
2018-02-09T21:23:14.929Z,68.06
2018-02-09T21:25:42.576Z,68.11
2018-02-09T21:28:10.141Z,68.10
2018-02-09T21:30:38.091Z,68.25
2018-02-09T21:33:05.635Z,67.86
2018-02-09T21:35:33.215Z,68.24
2018-02-09T21:38:00.734Z,68.10
2018-02-09T21:40:28.268Z,68.49
2018-02-09T21:42:55.843Z,68.77
2018-02-09T21:45:23.385Z,68.75
2018-02-09T21:47:51.107Z,68.87
2018-02-09T21:50:18.662Z,68.99
2018-02-09T21:52:46.209Z,68.75
2018-02-09T21:55:13.864Z,69.03
2018-02-09T21:57:41.418Z,68.98
2018-02-09T22:00:08.952Z,69.24
2018-02-09T22:02:36.540Z,69.21
2018-02-09T22:05:04.086Z,68.90
2018-02-09T22:07:31.654Z,68.82
2018-02-09T22:09:59.323Z,69.34
2018-02-09T22:12:26.943Z,69.75
2018-02-09T22:14:54.542Z,69.74
2018-02-09T22:17:22.415Z,69.56
2018-02-09T22:19:49.960Z,69.28
2018-02-09T22:22:17.573Z,69.13
2018-02-09T22:24:45.100Z,69.11
2018-02-09T22:27:12.631Z,69.43
2018-02-09T22:29:40.228Z,69.53
2018-02-09T22:32:07.769Z,69.57
2018-02-09T22:34:35.343Z,69.53
2018-02-09T22:37:02.875Z,69.39
2018-02-09T22:39:30.432Z,69.47
2018-02-09T22:41:58.251Z,69.49
2018-02-09T22:44:25.799Z,69.43
2018-02-09T22:46:53.346Z,69.46
2018-02-09T22:49:20.878Z,69.39
2018-02-09T22:51:48.451Z,69.24
2018-02-09T22:54:16.026Z,69.45
2018-02-09T22:56:43.601Z,69.50
2018-02-09T22:59:11.186Z,69.34
2018-02-09T23:01:38.710Z,69.39
2018-02-09T23:04:06.254Z,69.61
2018-02-09T23:06:33.836Z,69.70
2018-02-09T23:09:01.834Z,69.59
2018-02-09T23:11:29.413Z,69.21
2018-02-09T23:13:56.980Z,69.22
2018-02-09T23:16:24.529Z,69.47
2018-02-09T23:18:52.078Z,69.62
2018-02-09T23:21:19.585Z,69.68
2018-02-09T23:23:47.111Z,69.73
2018-02-09T23:26:14.670Z,69.52
2018-02-09T23:28:42.374Z,69.32
2018-02-09T23:31:09.967Z,69.38
2018-02-09T23:33:37.527Z,69.70
2018-02-09T23:36:05.106Z,69.52
2018-02-09T23:38:32.971Z,69.75
2018-02-09T23:41:00.510Z,69.47
2018-02-09T23:43:28.037Z,69.59
2018-02-09T23:45:55.590Z,69.69
2018-02-09T23:48:23.141Z,69.58
2018-02-09T23:50:50.699Z,69.53
2018-02-09T23:53:18.252Z,69.60
2018-02-09T23:55:45.781Z,69.51
2018-02-09T23:58:13.383Z,69.70
